createdAt,value
2022-09-05T00:00:14.978Z,93939.91
2022-09-05T00:03:10.662Z,93941.44
2022-09-05T00:06:01.816Z,93934.09
2022-09-05T00:08:52.036Z,93943.34
2022-09-05T00:12:10.969Z,93941.97
2022-09-05T00:15:18.897Z,93938.81
2022-09-05T00:18:11.944Z,93944.09
2022-09-05T00:24:32.023Z,93948.34
2022-09-05T00:25:00.732Z,93950.72
2022-09-05T00:28:25.273Z,93950.47
2022-09-05T00:31:56.043Z,93946.75
2022-09-05T00:34:06.751Z,93930.38
2022-09-05T00:36:46.268Z,93939.66
2022-09-05T00:39:36.207Z,93946.53
2022-09-05T00:42:22.718Z,93943.06
2022-09-05T00:45:02.259Z,93939.09
2022-09-05T00:47:30.101Z,93945.47
2022-09-05T00:50:06.671Z,93944.09
2022-09-05T00:53:07.377Z,93945.19
2022-09-05T00:56:11.245Z,93953.62
2022-09-05T00:58:44.591Z,93942.28
2022-09-05T01:01:37.580Z,93962.88
2022-09-05T01:04:11.050Z,93959.28
2022-09-05T01:07:03.463Z,93962.94
2022-09-05T01:09:53.776Z,93964.75
2022-09-05T01:12:52.748Z,93963.41
2022-09-05T01:15:32.723Z,93957.56
2022-09-05T01:18:19.783Z,93963.44
2022-09-05T01:20:56.382Z,93966.56
2022-09-05T01:23:46.109Z,93961.34
2022-09-05T01:26:37.003Z,93959.19
2022-09-05T01:29:29.959Z,93954.94
2022-09-05T01:32:00.067Z,93958.38
2022-09-05T01:34:40.092Z,93960.25
2022-09-05T01:37:32.673Z,93955.31
2022-09-05T01:40:17.229Z,93959.75
2022-09-05T01:43:23.656Z,93964.53
2022-09-05T01:46:27.185Z,93960.91
2022-09-05T01:49:02.528Z,93950.59
2022-09-05T01:51:53.163Z,93958.81
2022-09-05T01:54:29.407Z,93959.34
2022-09-05T01:57:23.466Z,93967.53
2022-09-05T01:59:55.571Z,93958.53
2022-09-05T02:02:41.893Z,93957.66
2022-09-05T02:05:51.899Z,93955.88
2022-09-05T02:08:28.594Z,93953.50
2022-09-05T02:11:08.970Z,93955.78
2022-09-05T02:13:36.298Z,93958.94
2022-09-05T02:16:22.939Z,93953.44
2022-09-05T02:19:09.919Z,93960.25
2022-09-05T02:21:55.726Z,93967.19
2022-09-05T02:24:37.885Z,93965.69
2022-09-05T02:28:04.673Z,93963.31
2022-09-05T02:30:47.428Z,93960.41
2022-09-05T02:33:47.097Z,93963.31
2022-09-05T02:36:25.585Z,93962.00
2022-09-05T02:43:15.690Z,93964.66
2022-09-05T02:45:11.603Z,93965.69
2022-09-05T02:45:17.334Z,93965.19
2022-09-05T02:48:12.706Z,93978.13
2022-09-05T02:57:23.496Z,93971.22
2022-09-05T02:57:37.220Z,93973.91
2022-09-05T02:57:43.081Z,93972.59
2022-09-05T02:59:52.594Z,93973.91
2022-09-05T03:03:01.985Z,93979.19
2022-09-05T03:05:37.301Z,93984.75
2022-09-05T03:08:13.819Z,93983.28
2022-09-05T03:11:20.540Z,93988.56
2022-09-05T03:14:10.019Z,93988.22
2022-09-05T03:17:19.014Z,93986.72
2022-09-05T03:20:25.841Z,93977.44
2022-09-05T03:23:07.871Z,93981.19
2022-09-05T03:25:48.818Z,93985.25
2022-09-05T03:29:05.805Z,93986.47
2022-09-05T03:31:36.180Z,93992.06
2022-09-05T03:34:17.979Z,93988.13
2022-09-05T03:36:48.691Z,93984.41
2022-09-05T03:39:42.587Z,93990.53
2022-09-05T03:42:23.354Z,93993.72
2022-09-05T03:45:12.787Z,94007.47
2022-09-05T03:48:28.102Z,93996.06
2022-09-05T03:54:51.153Z,94001.63
2022-09-05T03:57:25.092Z,94010.63
2022-09-05T03:57:42.377Z,94015.66
2022-09-05T04:00:11.445Z,94012.69
2022-09-05T04:08:08.390Z,94018.75
2022-09-05T04:08:24.513Z,94019.81
2022-09-05T04:08:57.273Z,94019.94
2022-09-05T04:11:40.089Z,94025.91
2022-09-05T04:14:29.839Z,94020.72
2022-09-05T04:17:09.620Z,94021.91
2022-09-05T04:20:13.086Z,94023.34
2022-09-05T04:23:25.226Z,94020.53
2022-09-05T04:26:39.092Z,94029.25
2022-09-05T04:29:16.801Z,94027.91
2022-09-05T04:32:19.183Z,94031.59
2022-09-05T04:34:49.944Z,94038.63
2022-09-05T04:37:48.465Z,94037.84
2022-09-05T04:40:36.974Z,94035.81
2022-09-05T04:43:35.176Z,94037.91
2022-09-05T04:46:18.749Z,94042.59
2022-09-05T04:49:14.449Z,94050.66
2022-09-05T04:52:00.084Z,94047.44
2022-09-05T04:54:31.527Z,94051.16
2022-09-05T04:57:14.022Z,94054.66
2022-09-05T05:01:50.782Z,94055.25
2022-09-05T05:06:08.362Z,94061.00
2022-09-05T05:06:12.752Z,94055.22
2022-09-05T05:08:57.595Z,94063.50
2022-09-05T05:16:56.372Z,94063.00
2022-09-05T05:18:08.808Z,94070.69
2022-09-05T05:18:53.245Z,94080.19
2022-09-05T05:21:15.958Z,94086.69
2022-09-05T05:23:50.935Z,94082.59
2022-09-05T05:26:31.328Z,94086.84
2022-09-05T05:29:10.624Z,94087.37
2022-09-05T05:31:41.073Z,94092.16
2022-09-05T05:34:26.539Z,94091.91
2022-09-05T05:37:03.091Z,94093.50
2022-09-05T05:39:34.202Z,94092.13
2022-09-05T05:42:20.258Z,94103.47
2022-09-05T05:44:59.505Z,94102.41
2022-09-05T05:47:44.683Z,94099.56
2022-09-05T05:50:36.451Z,94107.53
2022-09-05T05:53:50.227Z,94104.41
2022-09-05T05:56:49.164Z,94108.91
2022-09-05T05:59:25.546Z,94116.34
2022-09-05T06:01:59.211Z,94109.50
2022-09-05T06:04:45.765Z,94115.84
2022-09-05T06:08:46.334Z,94110.59
2022-09-05T06:14:56.459Z,94108.50
2022-09-05T06:15:01.458Z,94110.31
2022-09-05T06:17:36.205Z,94103.47
2022-09-05T06:22:10.812Z,94102.94
2022-09-05T06:23:47.986Z,94106.91
2022-09-05T06:26:29.775Z,94118.31
2022-09-05T06:29:12.863Z,94109.84
2022-09-05T06:31:55.660Z,94109.56
2022-09-05T06:34:35.142Z,94111.69
2022-09-05T06:37:28.134Z,94113.00
2022-09-05T06:40:31.996Z,94119.09
2022-09-05T06:43:31.644Z,94115.66
2022-09-05T06:46:09.177Z,94109.28
2022-09-05T06:49:29.915Z,94110.66
2022-09-05T06:52:29.776Z,94119.88
2022-09-05T06:55:33.929Z,94125.72
2022-09-05T06:58:13.861Z,94128.12
2022-09-05T07:00:56.890Z,94127.59
2022-09-05T07:03:52.408Z,94127.84
2022-09-05T07:07:01.235Z,94133.38
2022-09-05T07:09:46.003Z,94128.91
2022-09-05T07:12:30.478Z,94118.53
2022-09-05T07:15:13.667Z,94127.56
2022-09-05T07:18:19.523Z,94126.75
2022-09-05T07:21:16.391Z,94131.94
2022-09-05T07:24:12.115Z,94126.13
2022-09-05T07:26:52.528Z,94125.94
2022-09-05T07:30:00.739Z,94119.78
2022-09-05T07:32:32.173Z,94119.28
2022-09-05T07:35:02.912Z,94111.94
2022-09-05T07:37:41.107Z,94113.00
2022-09-05T07:40:26.149Z,94108.72
2022-09-05T07:43:35.579Z,94117.72
2022-09-05T07:46:11.848Z,94111.22
2022-09-05T07:49:03.406Z,94104.16
2022-09-05T07:56:49.331Z,94102.94
2022-09-05T07:56:53.851Z,94097.09
2022-09-05T07:57:31.947Z,94100.56
2022-09-05T08:00:24.677Z,94091.50
2022-09-05T08:03:01.246Z,94095.19
2022-09-05T08:05:37.530Z,94100.19
2022-09-05T08:08:11.712Z,94099.16
2022-09-05T08:11:22.124Z,94098.59
2022-09-05T08:14:38.501Z,94094.31
2022-09-05T08:16:47.175Z,94096.53
2022-09-05T08:19:46.201Z,94096.00
2022-09-05T08:22:23.991Z,94102.72
2022-09-05T08:25:17.652Z,94105.50
2022-09-05T08:28:03.289Z,94096.34
2022-09-05T08:30:38.795Z,94106.56
2022-09-05T08:33:19.405Z,94100.47
2022-09-05T08:35:50.174Z,94102.66
2022-09-05T08:38:21.018Z,94100.56
2022-09-05T08:51:14.401Z,94102.56
2022-09-05T08:54:13.377Z,94113.00
2022-09-05T08:57:10.574Z,94102.31
2022-09-05T09:00:18.627Z,94092.13
2022-09-05T09:03:09.664Z,94098.75
2022-09-05T09:06:13.651Z,94101.00
2022-09-05T09:09:10.030Z,94102.59
2022-09-05T09:12:02.519Z,94097.56
2022-09-05T09:14:39.495Z,94097.50
2022-09-05T09:17:16.601Z,94099.41
2022-09-05T09:19:53.359Z,94096.44
2022-09-05T09:22:54.421Z,94094.84
2022-09-05T09:25:36.763Z,94094.69
2022-09-05T09:28:46.796Z,94100.53
2022-09-05T09:31:11.560Z,94094.75
2022-09-05T09:34:18.199Z,94099.03
2022-09-05T09:37:00.826Z,94100.75
2022-09-05T09:39:43.645Z,94094.53
2022-09-05T09:42:33.416Z,94098.59
2022-09-05T09:45:35.099Z,94083.47
2022-09-05T09:48:38.493Z,94088.88
2022-09-05T09:51:17.532Z,94089.59
2022-09-05T09:54:32.986Z,94087.44
2022-09-05T09:57:23.413Z,94086.75
2022-09-05T10:00:24.274Z,94084.59
2022-09-05T10:10:05.988Z,94077.56
2022-09-05T10:10:46.313Z,94074.97
2022-09-05T10:10:49.905Z,94081.66
2022-09-05T10:13:29.143Z,94068.34
2022-09-05T10:15:56.902Z,94067.03
2022-09-05T10:18:43.080Z,94070.47
2022-09-05T10:21:45.867Z,94070.59
2022-09-05T10:24:36.736Z,94064.19
2022-09-05T10:27:18.300Z,94064.94
2022-09-05T10:30:07.522Z,94066.44
2022-09-05T10:35:13.081Z,94057.63
2022-09-05T10:36:23.561Z,94046.53
2022-09-05T10:39:13.594Z,94050.88
2022-09-05T10:41:44.902Z,94047.59
2022-09-05T10:44:14.206Z,94044.75
2022-09-05T10:46:53.586Z,94039.38
2022-09-05T10:49:29.979Z,94034.72
2022-09-05T10:52:18.228Z,94035.28
2022-09-05T10:54:50.919Z,94032.87
2022-09-05T10:58:01.280Z,94031.88
2022-09-05T11:02:24.440Z,94029.50
2022-09-05T11:04:07.249Z,94026.25
2022-09-05T11:06:48.585Z,94025.81
2022-09-05T11:09:38.184Z,94030.28
2022-09-05T11:12:36.011Z,94021.69
2022-09-05T11:15:22.889Z,94022.94
2022-09-05T11:18:55.674Z,94023.38
2022-09-05T11:21:39.262Z,94035.34
2022-09-05T11:24:33.398Z,94034.97
2022-09-05T11:27:43.818Z,94034.47
2022-09-05T11:30:29.290Z,94041.31
2022-09-05T11:38:30.566Z,94025.03
2022-09-05T11:40:08.822Z,94028.56
2022-09-05T11:40:09.702Z,94022.22
2022-09-05T11:42:33.880Z,94021.41
2022-09-05T11:45:30.768Z,94015.75
2022-09-05T11:48:23.654Z,94015.25
2022-09-05T11:50:53.998Z,94007.31
2022-09-05T11:53:49.327Z,94009.31
2022-09-05T11:56:45.522Z,94012.63
2022-09-05T11:59:33.343Z,94001.16
2022-09-05T12:02:26.664Z,94009.53
2022-09-05T12:05:50.057Z,94003.56
2022-09-05T12:08:23.442Z,94006.00
2022-09-05T12:11:09.180Z,94002.72
2022-09-05T12:13:51.200Z,94003.72
2022-09-05T12:16:48.439Z,93997.25
2022-09-05T12:19:34.690Z,93990.00
2022-09-05T12:22:16.407Z,93997.84
2022-09-05T12:27:35.836Z,93995.91
2022-09-05T12:29:33.431Z,93989.81
2022-09-05T12:32:59.455Z,93988.22
2022-09-05T12:36:10.578Z,93984.69
2022-09-05T12:40:45.120Z,93979.00
2022-09-05T12:41:43.500Z,93986.63
2022-09-05T12:44:38.062Z,93977.31
2022-09-05T12:47:16.656Z,93992.59
2022-09-05T12:50:14.542Z,93987.25
2022-09-05T12:52:52.451Z,93991.44
2022-09-05T12:55:34.000Z,93997.38
2022-09-05T13:03:01.613Z,93992.78
2022-09-05T13:03:08.949Z,94004.88
2022-09-05T13:04:20.955Z,94001.66
2022-09-05T13:07:09.694Z,93996.00
2022-09-05T13:11:18.579Z,94002.06
2022-09-05T13:14:52.853Z,93993.09
2022-09-05T13:15:40.716Z,93990.53
2022-09-05T13:18:22.432Z,93984.06
2022-09-05T13:20:56.620Z,93987.59
2022-09-05T13:23:33.562Z,93985.66
2022-09-05T13:26:21.196Z,93977.81
2022-09-05T13:29:09.992Z,93975.53
2022-09-05T13:38:03.469Z,93969.16
2022-09-05T13:38:07.749Z,93968.78
2022-09-05T13:38:19.482Z,93970.88
2022-09-05T13:40:27.706Z,93974.34
2022-09-05T13:43:21.995Z,93972.66
2022-09-05T13:46:19.818Z,93963.87
2022-09-05T13:49:29.454Z,93971.81
2022-09-05T13:52:26.480Z,93974.31
2022-09-05T13:55:03.660Z,93976.06
2022-09-05T13:57:44.048Z,93979.56
2022-09-05T14:00:27.313Z,93978.41
2022-09-05T14:03:37.820Z,93976.34
2022-09-05T14:06:30.795Z,93976.75
2022-09-05T14:09:36.840Z,93977.63
2022-09-05T14:12:37.255Z,93978.63
2022-09-05T14:15:24.995Z,93978.22
2022-09-05T14:17:53.129Z,93985.25
2022-09-05T14:20:49.841Z,93983.47
2022-09-05T14:23:21.225Z,93974.31
2022-09-05T14:25:59.917Z,93978.69
2022-09-05T14:28:31.678Z,93974.28
2022-09-05T14:36:33.470Z,93980.66
2022-09-05T14:37:52.311Z,93988.28
2022-09-05T14:38:00.625Z,93991.50
2022-09-05T14:40:02.131Z,93990.56
2022-09-05T14:43:26.967Z,93992.81
2022-09-05T14:46:13.723Z,93989.84
2022-09-05T14:49:11.501Z,93991.59
2022-09-05T14:51:39.651Z,93993.03
2022-09-05T15:00:33.214Z,93980.97
2022-09-05T15:02:48.796Z,93978.19
2022-09-05T15:03:04.927Z,93978.31
2022-09-05T15:05:41.364Z,93984.00
2022-09-05T15:10:14.920Z,93991.78
2022-09-05T15:12:21.380Z,93993.25
2022-09-05T15:14:07.737Z,93994.53
2022-09-05T15:16:43.642Z,93993.63
2022-09-05T15:19:12.289Z,93986.16
2022-09-05T15:21:41.647Z,93984.78
2022-09-05T15:24:17.170Z,93985.44
2022-09-05T15:26:54.483Z,93993.56
2022-09-05T15:29:27.833Z,93990.44
2022-09-05T15:32:21.490Z,93999.97
2022-09-05T15:34:55.006Z,93989.22
2022-09-05T15:37:31.818Z,93994.09
2022-09-05T15:40:24.023Z,93984.34
2022-09-05T15:42:58.070Z,93993.66
2022-09-05T15:45:29.298Z,93995.03
2022-09-05T15:48:19.204Z,94004.91
2022-09-05T15:50:52.883Z,94009.97
2022-09-05T15:53:29.728Z,94010.66
2022-09-05T15:56:14.574Z,94009.56
2022-09-05T15:58:53.085Z,94012.56
2022-09-05T16:01:59.860Z,94023.38
2022-09-05T16:06:53.848Z,94015.19
2022-09-05T16:10:33.771Z,94015.19
2022-09-05T16:10:48.889Z,94015.25
2022-09-05T16:13:15.805Z,94016.25
2022-09-05T16:17:44.778Z,94021.94
2022-09-05T16:23:19.239Z,94022.28
2022-09-05T16:23:36.283Z,94023.25
2022-09-05T16:24:59.378Z,94028.03
2022-09-05T16:27:43.842Z,94022.81
2022-09-05T16:30:19.893Z,94031.06
2022-09-05T16:32:51.599Z,94036.25
2022-09-05T16:35:25.157Z,94041.88
2022-09-05T16:38:06.600Z,94031.47
2022-09-05T16:40:39.408Z,94035.13
2022-09-05T16:43:21.665Z,94046.81
2022-09-05T16:46:23.784Z,94037.12
2022-09-05T16:48:57.710Z,94045.44
2022-09-05T16:51:35.607Z,94052.53
2022-09-05T16:54:17.919Z,94043.13
2022-09-05T16:56:56.148Z,94048.09
2022-09-05T16:59:30.935Z,94049.84
2022-09-05T17:02:11.822Z,94050.53
2022-09-05T17:05:05.805Z,94051.13
2022-09-05T17:07:51.909Z,94054.47
2022-09-05T17:10:25.697Z,94059.75
2022-09-05T17:12:55.298Z,94058.09
2022-09-05T17:15:31.785Z,94060.44
2022-09-05T17:18:21.630Z,94055.41
2022-09-05T17:20:55.990Z,94068.28
2022-09-05T17:27:19.897Z,94073.25
2022-09-05T17:29:35.286Z,94074.25
2022-09-05T17:32:50.109Z,94078.87
2022-09-05T17:35:42.590Z,94065.66
2022-09-05T17:39:02.620Z,94080.63
2022-09-05T17:41:44.332Z,94074.47
2022-09-05T17:44:28.057Z,94075.88
2022-09-05T17:46:57.759Z,94082.06
2022-09-05T17:49:46.517Z,94083.06
2022-09-05T17:52:16.800Z,94090.19
2022-09-05T17:54:49.540Z,94089.59
2022-09-05T17:57:34.426Z,94081.47
2022-09-05T18:00:49.621Z,94085.78
2022-09-05T18:03:36.363Z,94097.09
2022-09-05T18:06:18.785Z,94089.19
2022-09-05T18:08:46.704Z,94099.88
2022-09-05T18:11:25.400Z,94098.88
2022-09-05T18:14:04.980Z,94096.81
2022-09-05T18:17:36.834Z,94105.25
2022-09-05T18:19:46.152Z,94099.31
2022-09-05T18:22:30.748Z,94098.66
2022-09-05T18:25:30.711Z,94099.47
2022-09-05T18:28:22.761Z,94092.28
2022-09-05T18:30:52.089Z,94093.59
2022-09-05T18:33:53.785Z,94091.12
2022-09-05T18:36:25.456Z,94093.81
2022-09-05T18:39:26.056Z,94094.22
2022-09-05T18:41:53.868Z,94091.59
2022-09-05T18:44:25.091Z,94089.56
2022-09-05T18:46:56.508Z,94099.38
2022-09-05T18:50:26.523Z,94097.28
2022-09-05T18:52:48.023Z,94104.16
2022-09-05T18:55:46.357Z,94095.44
2022-09-05T18:58:26.591Z,94095.19
2022-09-05T19:00:56.519Z,94094.41
2022-09-05T19:03:34.311Z,94098.41
2022-09-05T19:06:36.227Z,94096.81
2022-09-05T19:09:08.122Z,94103.22
2022-09-05T19:11:53.627Z,94092.31
2022-09-05T19:14:36.944Z,94093.94
2022-09-05T19:17:17.009Z,94092.34
2022-09-05T19:20:33.158Z,94094.97
2022-09-05T19:23:13.270Z,94097.66
2022-09-05T19:25:46.576Z,94092.06
2022-09-05T19:36:51.022Z,94090.19
2022-09-05T19:36:58.520Z,94090.47
2022-09-05T19:36:58.702Z,94094.69
2022-09-05T19:46:45.644Z,94087.00
2022-09-05T19:47:36.581Z,94085.16
2022-09-05T19:47:50.281Z,94082.75
2022-09-05T19:48:26.359Z,94081.97
2022-09-05T19:51:16.728Z,94081.19
2022-09-05T19:54:04.215Z,94080.63
2022-09-05T19:56:59.664Z,94084.84
2022-09-05T19:59:40.995Z,94088.81
2022-09-05T20:02:20.333Z,94084.84
2022-09-05T20:04:53.146Z,94091.19
2022-09-05T20:07:24.086Z,94083.50
2022-09-05T20:09:53.840Z,94082.12
2022-09-05T20:12:27.741Z,94081.06
2022-09-05T20:14:55.915Z,94085.87
2022-09-05T20:17:28.933Z,94088.47
2022-09-05T20:20:08.375Z,94080.78
2022-09-05T20:22:49.243Z,94077.56
2022-09-05T20:25:36.061Z,94079.88
2022-09-05T20:28:17.149Z,94079.50
2022-09-05T20:30:48.697Z,94080.22
2022-09-05T20:33:25.304Z,94080.75
2022-09-05T20:40:56.282Z,94084.97
2022-09-05T20:43:16.873Z,94082.50
2022-09-05T20:43:24.420Z,94090.19
2022-09-05T20:44:48.726Z,94081.78
2022-09-05T20:53:32.429Z,94087.34
2022-09-05T20:54:13.816Z,94082.06
2022-09-05T20:54:26.196Z,94087.06
2022-09-05T20:56:32.677Z,94076.69
2022-09-05T20:59:01.096Z,94083.09
2022-09-05T21:01:32.687Z,94083.34
2022-09-05T21:04:03.499Z,94088.88
2022-09-05T21:06:34.094Z,94087.34
2022-09-05T21:09:22.524Z,94084.31
2022-09-05T21:11:58.838Z,94082.75
2022-09-05T21:14:29.180Z,94079.13
2022-09-05T21:17:14.991Z,94078.63
2022-09-05T21:19:53.598Z,94077.09
2022-09-05T21:22:24.092Z,94079.88
2022-09-05T21:25:22.137Z,94083.25
2022-09-05T21:28:06.272Z,94076.56
2022-09-05T21:30:40.751Z,94079.72
2022-09-05T21:33:22.127Z,94084.72
2022-09-05T21:35:59.571Z,94081.38
2022-09-05T21:38:40.857Z,94082.97
2022-09-05T21:41:09.458Z,94078.16
2022-09-05T21:47:43.758Z,94086.34
2022-09-05T21:47:47.160Z,94087.50
2022-09-05T21:49:23.134Z,94080.31
2022-09-05T21:51:51.954Z,94082.47
2022-09-05T21:59:17.092Z,94083.16
2022-09-05T21:59:29.609Z,94080.88
2022-09-05T22:00:15.628Z,94071.19
2022-09-05T22:02:49.591Z,94076.94
2022-09-05T22:05:17.649Z,94077.38
2022-09-05T22:07:45.033Z,94073.78
2022-09-05T22:10:12.520Z,94076.06
2022-09-05T22:12:40.871Z,94075.16
2022-09-05T22:15:27.919Z,94088.69
2022-09-05T22:18:17.777Z,94083.06
2022-09-05T22:21:01.301Z,94080.03
2022-09-05T22:23:40.315Z,94077.81
2022-09-05T22:26:08.998Z,94077.38
2022-09-05T22:28:38.981Z,94074.62
2022-09-05T22:31:07.510Z,94080.44
2022-09-05T22:33:36.256Z,94080.03
2022-09-05T22:36:04.608Z,94077.63
2022-09-05T22:38:33.410Z,94083.88
2022-09-05T22:41:00.766Z,94083.44
2022-09-05T22:43:33.650Z,94087.06
2022-09-05T22:46:01.130Z,94092.09
2022-09-05T22:48:28.693Z,94086.97
2022-09-05T22:50:57.406Z,94090.56
2022-09-05T22:53:24.850Z,94098.59
2022-09-05T22:56:02.199Z,94089.28
2022-09-05T22:58:30.607Z,94085.09
2022-09-05T23:01:01.141Z,94089.19
2022-09-05T23:03:28.548Z,94085.41
2022-09-05T23:05:56.337Z,94081.84
2022-09-05T23:08:23.784Z,94085.66
2022-09-05T23:10:51.153Z,94089.47
2022-09-05T23:13:18.923Z,94081.56
2022-09-05T23:15:46.799Z,94084.66
2022-09-05T23:18:14.274Z,94074.25
2022-09-05T23:20:42.155Z,94090.25
2022-09-05T23:23:09.629Z,94075.03
2022-09-05T23:25:37.007Z,94083.38
2022-09-05T23:28:06.637Z,94084.22
2022-09-05T23:30:36.296Z,94075.53
2022-09-05T23:33:09.265Z,94075.12
2022-09-05T23:35:37.356Z,94082.38
2022-09-05T23:38:09.412Z,94079.13
2022-09-05T23:40:38.133Z,94088.75
2022-09-05T23:43:06.242Z,94081.19
2022-09-05T23:45:33.882Z,94071.84
2022-09-05T23:48:01.719Z,94075.91
2022-09-05T23:50:29.356Z,94077.69
2022-09-05T23:52:56.656Z,94079.91
2022-09-05T23:55:24.751Z,94079.50
2022-09-05T23:57:57.792Z,94078.34
